Terminal Aerodrome Forecast
Issued by NWS Twin Cities, MN

Home | Current Version | Previous Version | Text Only | Print | Product List | Glossary On
Versions: 1 2 3 4 5 6 7 8 9 10 11 12 13 14 15 16 17 18 19 20 21 22 23 24 25 26 27 28
000
FTUS43 KMPX 192100 AAA
TAFMSP
TAF AMD
KMSP 192101Z 1921/2024 18014G21KT P6SM SCT060 OVC070
      TEMPO 1921/1924 -SHRA OVC060
     FM200000 23011G17KT P6SM VCSH SCT040 OVC060
     FM200200 21009KT P6SM SCT060 BKN100
     FM200600 25005KT P6SM SCT200
     FM201400 03004KT P6SM SCT070 BKN200
     FM201900 10008KT P6SM SCT060 BKN120=

USA.gov is the U.S. government's official web portal to all federal, state and local government web resources and services.